sensor_id;sensor_type;location;lat;lon;timestamp;P1;durP1;ratioP1;P2;durP2;ratioP2
40793;SDS011;26502;51.886;15.604;2023-07-09T00:04:50;10.80;;;3.90;;
40793;SDS011;26502;51.886;15.604;2023-07-09T00:09:57;6.20;;;4.00;;
40793;SDS011;26502;51.886;15.604;2023-07-09T00:15:04;5.50;;;4.40;;
40793;SDS011;26502;51.886;15.604;2023-07-09T00:20:14;5.10;;;4.40;;
40793;SDS011;26502;51.886;15.604;2023-07-09T00:25:21;7.10;;;4.70;;
40793;SDS011;26502;51.886;15.604;2023-07-09T00:30:27;5.40;;;4.00;;
40793;SDS011;26502;51.886;15.604;2023-07-09T00:35:33;7.80;;;3.90;;
40793;SDS011;26502;51.886;15.604;2023-07-09T00:40:44;8.20;;;5.00;;
40793;SDS011;26502;51.886;15.604;2023-07-09T00:51:42;4.80;;;4.20;;
40793;SDS011;26502;51.886;15.604;2023-07-09T00:56:50;5.00;;;4.20;;
40793;SDS011;26502;51.886;15.604;2023-07-09T01:02:00;6.50;;;4.30;;
40793;SDS011;26502;51.886;15.604;2023-07-09T01:07:07;5.10;;;4.60;;
40793;SDS011;26502;51.886;15.604;2023-07-09T01:12:13;7.00;;;4.30;;
40793;SDS011;26502;51.886;15.604;2023-07-09T01:17:23;4.80;;;4.30;;
40793;SDS011;26502;51.886;15.604;2023-07-09T01:22:30;4.50;;;4.10;;
40793;SDS011;26502;51.886;15.604;2023-07-09T01:27:37;6.20;;;4.50;;
40793;SDS011;26502;51.886;15.604;2023-07-09T01:32:45;8.10;;;4.60;;
40793;SDS011;26502;51.886;15.604;2023-07-09T01:37:50;7.00;;;4.70;;
40793;SDS011;26502;51.886;15.604;2023-07-09T01:42:58;7.30;;;4.00;;
40793;SDS011;26502;51.886;15.604;2023-07-09T01:48:09;5.20;;;4.30;;
40793;SDS011;26502;51.886;15.604;2023-07-09T01:53:19;4.70;;;4.30;;
40793;SDS011;26502;51.886;15.604;2023-07-09T01:58:28;6.80;;;4.40;;
40793;SDS011;26502;51.886;15.604;2023-07-09T02:03:34;9.40;;;4.30;;
40793;SDS011;26502;51.886;15.604;2023-07-09T02:08:40;6.60;;;4.50;;
40793;SDS011;26502;51.886;15.604;2023-07-09T02:13:46;5.60;;;4.40;;
40793;SDS011;26502;51.886;15.604;2023-07-09T02:18:52;7.10;;;4.20;;
40793;SDS011;26502;51.886;15.604;2023-07-09T02:23:57;11.80;;;4.90;;
40793;SDS011;26502;51.886;15.604;2023-07-09T02:29:03;7.40;;;4.70;;
40793;SDS011;26502;51.886;15.604;2023-07-09T02:34:09;9.40;;;4.40;;
40793;SDS011;26502;51.886;15.604;2023-07-09T02:39:15;4.60;;;4.00;;
40793;SDS011;26502;51.886;15.604;2023-07-09T02:44:22;5.50;;;4.50;;
40793;SDS011;26502;51.886;15.604;2023-07-09T02:49:28;8.50;;;4.30;;
40793;SDS011;26502;51.886;15.604;2023-07-09T02:54:34;6.40;;;4.70;;
40793;SDS011;26502;51.886;15.604;2023-07-09T02:59:41;5.00;;;4.20;;
40793;SDS011;26502;51.886;15.604;2023-07-09T03:04:47;5.60;;;5.00;;
40793;SDS011;26502;51.886;15.604;2023-07-09T03:09:53;7.00;;;4.70;;
40793;SDS011;26502;51.886;15.604;2023-07-09T03:14:58;5.30;;;4.80;;
40793;SDS011;26502;51.886;15.604;2023-07-09T03:20:05;5.60;;;5.00;;
40793;SDS011;26502;51.886;15.604;2023-07-09T03:25:12;5.60;;;4.70;;
40793;SDS011;26502;51.886;15.604;2023-07-09T03:30:18;5.90;;;4.40;;
40793;SDS011;26502;51.886;15.604;2023-07-09T03:35:24;7.00;;;4.60;;
40793;SDS011;26502;51.886;15.604;2023-07-09T03:40:30;6.60;;;4.60;;
40793;SDS011;26502;51.886;15.604;2023-07-09T03:45:37;5.80;;;4.10;;
40793;SDS011;26502;51.886;15.604;2023-07-09T03:50:43;8.80;;;4.70;;
40793;SDS011;26502;51.886;15.604;2023-07-09T03:55:55;5.20;;;4.40;;
40793;SDS011;26502;51.886;15.604;2023-07-09T04:01:02;5.20;;;4.30;;
40793;SDS011;26502;51.886;15.604;2023-07-09T04:06:08;8.00;;;5.00;;
40793;SDS011;26502;51.886;15.604;2023-07-09T04:11:14;6.60;;;4.40;;
40793;SDS011;26502;51.886;15.604;2023-07-09T04:16:20;5.20;;;4.60;;
40793;SDS011;26502;51.886;15.604;2023-07-09T04:21:26;4.90;;;4.30;;
40793;SDS011;26502;51.886;15.604;2023-07-09T04:26:32;4.90;;;4.40;;
40793;SDS011;26502;51.886;15.604;2023-07-09T04:31:42;5.90;;;4.40;;
40793;SDS011;26502;51.886;15.604;2023-07-09T04:36:48;5.70;;;4.90;;
40793;SDS011;26502;51.886;15.604;2023-07-09T04:41:54;8.50;;;4.40;;
40793;SDS011;26502;51.886;15.604;2023-07-09T04:47:00;7.00;;;4.70;;
40793;SDS011;26502;51.886;15.604;2023-07-09T04:52:07;5.50;;;4.80;;
40793;SDS011;26502;51.886;15.604;2023-07-09T04:57:14;5.40;;;4.40;;
40793;SDS011;26502;51.886;15.604;2023-07-09T05:02:20;4.60;;;4.10;;
40793;SDS011;26502;51.886;15.604;2023-07-09T05:07:27;8.00;;;4.70;;
40793;SDS011;26502;51.886;15.604;2023-07-09T05:12:35;7.90;;;4.70;;
40793;SDS011;26502;51.886;15.604;2023-07-09T05:17:51;5.70;;;4.50;;
40793;SDS011;26502;51.886;15.604;2023-07-09T05:22:56;8.00;;;5.10;;
40793;SDS011;26502;51.886;15.604;2023-07-09T05:28:02;8.30;;;4.80;;
40793;SDS011;26502;51.886;15.604;2023-07-09T05:33:08;6.60;;;4.80;;
40793;SDS011;26502;51.886;15.604;2023-07-09T05:38:14;7.20;;;5.00;;
40793;SDS011;26502;51.886;15.604;2023-07-09T05:43:20;7.70;;;5.50;;
40793;SDS011;26502;51.886;15.604;2023-07-09T05:48:26;7.80;;;5.30;;
40793;SDS011;26502;51.886;15.604;2023-07-09T05:53:32;13.00;;;5.40;;
40793;SDS011;26502;51.886;15.604;2023-07-09T05:58:38;7.50;;;4.30;;
40793;SDS011;26502;51.886;15.604;2023-07-09T06:03:43;10.60;;;5.40;;
40793;SDS011;26502;51.886;15.604;2023-07-09T06:08:50;8.80;;;5.80;;
40793;SDS011;26502;51.886;15.604;2023-07-09T06:13:56;8.50;;;5.80;;
40793;SDS011;26502;51.886;15.604;2023-07-09T06:19:02;8.20;;;5.00;;
40793;SDS011;26502;51.886;15.604;2023-07-09T06:24:08;9.50;;;5.40;;
40793;SDS011;26502;51.886;15.604;2023-07-09T06:29:14;10.00;;;5.60;;
40793;SDS011;26502;51.886;15.604;2023-07-09T06:34:20;6.50;;;4.90;;
40793;SDS011;26502;51.886;15.604;2023-07-09T06:39:26;9.40;;;5.40;;
40793;SDS011;26502;51.886;15.604;2023-07-09T06:44:32;7.80;;;5.20;;
40793;SDS011;26502;51.886;15.604;2023-07-09T06:49:40;9.60;;;4.90;;
40793;SDS011;26502;51.886;15.604;2023-07-09T06:54:45;8.90;;;5.50;;
40793;SDS011;26502;51.886;15.604;2023-07-09T06:59:52;9.00;;;5.30;;
40793;SDS011;26502;51.886;15.604;2023-07-09T07:04:58;7.60;;;4.90;;
40793;SDS011;26502;51.886;15.604;2023-07-09T07:10:04;11.20;;;5.40;;
40793;SDS011;26502;51.886;15.604;2023-07-09T07:15:12;8.80;;;4.40;;
40793;SDS011;26502;51.886;15.604;2023-07-09T07:25:23;6.90;;;5.00;;
40793;SDS011;26502;51.886;15.604;2023-07-09T07:30:30;6.60;;;4.60;;
40793;SDS011;26502;51.886;15.604;2023-07-09T07:35:35;11.90;;;4.80;;
40793;SDS011;26502;51.886;15.604;2023-07-09T07:40:44;10.00;;;4.60;;
40793;SDS011;26502;51.886;15.604;2023-07-09T07:45:50;7.10;;;4.40;;
40793;SDS011;26502;51.886;15.604;2023-07-09T07:50:59;6.60;;;4.30;;
40793;SDS011;26502;51.886;15.604;2023-07-09T07:56:06;7.00;;;4.30;;
40793;SDS011;26502;51.886;15.604;2023-07-09T08:01:12;5.80;;;3.80;;
40793;SDS011;26502;51.886;15.604;2023-07-09T08:06:18;6.60;;;4.10;;
40793;SDS011;26502;51.886;15.604;2023-07-09T08:11:24;5.70;;;3.50;;
40793;SDS011;26502;51.886;15.604;2023-07-09T08:16:32;7.60;;;3.60;;
40793;SDS011;26502;51.886;15.604;2023-07-09T08:21:38;7.60;;;3.10;;
40793;SDS011;26502;51.886;15.604;2023-07-09T08:26:44;9.40;;;3.90;;
40793;SDS011;26502;51.886;15.604;2023-07-09T08:31:50;4.40;;;3.70;;
40793;SDS011;26502;51.886;15.604;2023-07-09T08:36:56;4.90;;;3.00;;
40793;SDS011;26502;51.886;15.604;2023-07-09T08:42:03;5.40;;;3.60;;
40793;SDS011;26502;51.886;15.604;2023-07-09T08:47:14;4.50;;;3.10;;
40793;SDS011;26502;51.886;15.604;2023-07-09T08:52:30;5.20;;;2.90;;
40793;SDS011;26502;51.886;15.604;2023-07-09T08:57:41;7.90;;;3.10;;
40793;SDS011;26502;51.886;15.604;2023-07-09T09:02:51;2.90;;;2.50;;
40793;SDS011;26502;51.886;15.604;2023-07-09T09:13:44;5.40;;;3.10;;
40793;SDS011;26502;51.886;15.604;2023-07-09T09:23:58;5.70;;;2.70;;
40793;SDS011;26502;51.886;15.604;2023-07-09T09:29:16;3.30;;;3.00;;
40793;SDS011;26502;51.886;15.604;2023-07-09T09:34:23;3.20;;;2.90;;
40793;SDS011;26502;51.886;15.604;2023-07-09T09:39:31;7.40;;;2.70;;
40793;SDS011;26502;51.886;15.604;2023-07-09T09:44:44;3.10;;;2.80;;
40793;SDS011;26502;51.886;15.604;2023-07-09T09:49:51;3.30;;;2.60;;
40793;SDS011;26502;51.886;15.604;2023-07-09T09:55:02;4.00;;;3.30;;
40793;SDS011;26502;51.886;15.604;2023-07-09T10:00:27;6.20;;;3.70;;
40793;SDS011;26502;51.886;15.604;2023-07-09T10:05:37;5.00;;;3.60;;
40793;SDS011;26502;51.886;15.604;2023-07-09T10:10:48;4.10;;;3.70;;
40793;SDS011;26502;51.886;15.604;2023-07-09T10:16:01;4.50;;;3.30;;
40793;SDS011;26502;51.886;15.604;2023-07-09T10:21:13;5.30;;;3.40;;
40793;SDS011;26502;51.886;15.604;2023-07-09T10:26:24;9.70;;;3.50;;
40793;SDS011;26502;51.886;15.604;2023-07-09T10:31:37;5.90;;;3.20;;
40793;SDS011;26502;51.886;15.604;2023-07-09T10:36:55;5.30;;;3.20;;
40793;SDS011;26502;51.886;15.604;2023-07-09T10:42:12;6.50;;;3.80;;
40793;SDS011;26502;51.886;15.604;2023-07-09T10:47:27;3.60;;;3.00;;
40793;SDS011;26502;51.886;15.604;2023-07-09T10:52:36;6.10;;;3.30;;
40793;SDS011;26502;51.886;15.604;2023-07-09T10:57:46;5.10;;;3.10;;
40793;SDS011;26502;51.886;15.604;2023-07-09T11:02:58;5.30;;;3.30;;
40793;SDS011;26502;51.886;15.604;2023-07-09T11:08:09;4.70;;;3.20;;
40793;SDS011;26502;51.886;15.604;2023-07-09T11:13:23;4.80;;;3.20;;
40793;SDS011;26502;51.886;15.604;2023-07-09T11:18:34;5.10;;;3.40;;
40793;SDS011;26502;51.886;15.604;2023-07-09T11:23:43;6.10;;;3.50;;
40793;SDS011;26502;51.886;15.604;2023-07-09T11:28:53;6.70;;;3.10;;
40793;SDS011;26502;51.886;15.604;2023-07-09T11:34:15;4.80;;;3.10;;
40793;SDS011;26502;51.886;15.604;2023-07-09T11:39:27;9.30;;;3.40;;
40793;SDS011;26502;51.886;15.604;2023-07-09T11:44:35;4.70;;;3.20;;
40793;SDS011;26502;51.886;15.604;2023-07-09T11:49:54;4.70;;;3.50;;
40793;SDS011;26502;51.886;15.604;2023-07-09T11:55:03;5.20;;;3.50;;
40793;SDS011;26502;51.886;15.604;2023-07-09T12:00:26;4.00;;;3.60;;
40793;SDS011;26502;51.886;15.604;2023-07-09T12:05:38;5.00;;;3.40;;
40793;SDS011;26502;51.886;15.604;2023-07-09T12:10:45;4.10;;;3.30;;
40793;SDS011;26502;51.886;15.604;2023-07-09T12:15:51;6.30;;;4.00;;
40793;SDS011;26502;51.886;15.604;2023-07-09T12:20:57;7.40;;;3.80;;
40793;SDS011;26502;51.886;15.604;2023-07-09T12:26:04;3.90;;;3.50;;
40793;SDS011;26502;51.886;15.604;2023-07-09T12:31:15;4.90;;;3.10;;
40793;SDS011;26502;51.886;15.604;2023-07-09T12:36:21;3.50;;;3.20;;
40793;SDS011;26502;51.886;15.604;2023-07-09T12:41:34;6.20;;;4.00;;
40793;SDS011;26502;51.886;15.604;2023-07-09T12:46:42;3.70;;;3.30;;
40793;SDS011;26502;51.886;15.604;2023-07-09T12:51:49;6.00;;;4.00;;
40793;SDS011;26502;51.886;15.604;2023-07-09T12:56:55;10.60;;;3.50;;
40793;SDS011;26502;51.886;15.604;2023-07-09T13:02:06;5.70;;;3.50;;
40793;SDS011;26502;51.886;15.604;2023-07-09T13:07:29;5.60;;;3.40;;
40793;SDS011;26502;51.886;15.604;2023-07-09T13:12:38;3.50;;;3.20;;
40793;SDS011;26502;51.886;15.604;2023-07-09T13:17:44;3.70;;;3.40;;
40793;SDS011;26502;51.886;15.604;2023-07-09T13:27:55;5.60;;;3.20;;
40793;SDS011;26502;51.886;15.604;2023-07-09T13:33:00;5.40;;;3.40;;
40793;SDS011;26502;51.886;15.604;2023-07-09T13:38:14;4.40;;;3.70;;
40793;SDS011;26502;51.886;15.604;2023-07-09T13:43:24;5.50;;;4.00;;
40793;SDS011;26502;51.886;15.604;2023-07-09T13:48:33;6.10;;;3.80;;
40793;SDS011;26502;51.886;15.604;2023-07-09T13:53:40;7.20;;;3.40;;
40793;SDS011;26502;51.886;15.604;2023-07-09T13:58:46;4.10;;;3.60;;
40793;SDS011;26502;51.886;15.604;2023-07-09T14:03:54;5.80;;;3.40;;
40793;SDS011;26502;51.886;15.604;2023-07-09T14:09:02;4.80;;;3.30;;
40793;SDS011;26502;51.886;15.604;2023-07-09T14:14:12;4.80;;;3.70;;
40793;SDS011;26502;51.886;15.604;2023-07-09T14:19:23;4.70;;;3.70;;
40793;SDS011;26502;51.886;15.604;2023-07-09T14:24:30;4.30;;;3.80;;
40793;SDS011;26502;51.886;15.604;2023-07-09T14:29:36;3.70;;;3.30;;
40793;SDS011;26502;51.886;15.604;2023-07-09T14:34:42;4.10;;;3.50;;
40793;SDS011;26502;51.886;15.604;2023-07-09T14:39:48;8.20;;;3.30;;
40793;SDS011;26502;51.886;15.604;2023-07-09T14:44:54;3.90;;;3.20;;
40793;SDS011;26502;51.886;15.604;2023-07-09T14:49:59;4.50;;;3.90;;
40793;SDS011;26502;51.886;15.604;2023-07-09T15:00:16;5.10;;;3.30;;
40793;SDS011;26502;51.886;15.604;2023-07-09T15:05:24;4.80;;;4.00;;
40793;SDS011;26502;51.886;15.604;2023-07-09T15:10:30;4.60;;;3.20;;
40793;SDS011;26502;51.886;15.604;2023-07-09T15:15:36;7.40;;;4.00;;
40793;SDS011;26502;51.886;15.604;2023-07-09T15:25:51;4.40;;;3.80;;
40793;SDS011;26502;51.886;15.604;2023-07-09T15:30:56;7.90;;;3.80;;
40793;SDS011;26502;51.886;15.604;2023-07-09T15:36:04;5.90;;;3.30;;
40793;SDS011;26502;51.886;15.604;2023-07-09T15:41:15;4.10;;;3.70;;
40793;SDS011;26502;51.886;15.604;2023-07-09T15:46:21;3.80;;;3.40;;
40793;SDS011;26502;51.886;15.604;2023-07-09T15:51:27;4.90;;;3.70;;
40793;SDS011;26502;51.886;15.604;2023-07-09T15:56:34;4.20;;;3.30;;
40793;SDS011;26502;51.886;15.604;2023-07-09T16:01:40;4.00;;;3.60;;
40793;SDS011;26502;51.886;15.604;2023-07-09T16:11:51;3.90;;;3.50;;
40793;SDS011;26502;51.886;15.604;2023-07-09T16:16:59;5.00;;;3.70;;
40793;SDS011;26502;51.886;15.604;2023-07-09T16:22:06;5.40;;;3.30;;
40793;SDS011;26502;51.886;15.604;2023-07-09T16:27:15;4.10;;;3.10;;
40793;SDS011;26502;51.886;15.604;2023-07-09T16:32:21;5.70;;;3.40;;
40793;SDS011;26502;51.886;15.604;2023-07-09T16:37:27;3.10;;;2.80;;
40793;SDS011;26502;51.886;15.604;2023-07-09T16:47:37;5.90;;;3.20;;
40793;SDS011;26502;51.886;15.604;2023-07-09T16:52:44;7.70;;;3.30;;
40793;SDS011;26502;51.886;15.604;2023-07-09T16:57:51;4.30;;;2.90;;
40793;SDS011;26502;51.886;15.604;2023-07-09T17:02:59;4.80;;;3.30;;
40793;SDS011;26502;51.886;15.604;2023-07-09T17:08:08;5.30;;;3.50;;
40793;SDS011;26502;51.886;15.604;2023-07-09T17:13:17;4.20;;;3.30;;
40793;SDS011;26502;51.886;15.604;2023-07-09T17:18:26;5.40;;;3.00;;
40793;SDS011;26502;51.886;15.604;2023-07-09T17:23:34;3.30;;;2.90;;
40793;SDS011;26502;51.886;15.604;2023-07-09T17:28:40;5.80;;;3.20;;
40793;SDS011;26502;51.886;15.604;2023-07-09T17:33:46;5.70;;;3.20;;
40793;SDS011;26502;51.886;15.604;2023-07-09T17:38:51;4.00;;;3.20;;
40793;SDS011;26502;51.886;15.604;2023-07-09T17:43:57;10.60;;;3.60;;
40793;SDS011;26502;51.886;15.604;2023-07-09T17:49:07;5.90;;;3.10;;
40793;SDS011;26502;51.886;15.604;2023-07-09T17:54:17;13.80;;;3.50;;
40793;SDS011;26502;51.886;15.604;2023-07-09T17:59:25;19.80;;;3.70;;
40793;SDS011;26502;51.886;15.604;2023-07-09T18:04:36;10.10;;;3.30;;
40793;SDS011;26502;51.886;15.604;2023-07-09T18:09:42;6.10;;;3.80;;
40793;SDS011;26502;51.886;15.604;2023-07-09T18:14:49;5.50;;;3.40;;
40793;SDS011;26502;51.886;15.604;2023-07-09T18:19:57;6.40;;;4.00;;
40793;SDS011;26502;51.886;15.604;2023-07-09T18:25:03;4.00;;;3.10;;
40793;SDS011;26502;51.886;15.604;2023-07-09T18:30:17;8.10;;;3.60;;
40793;SDS011;26502;51.886;15.604;2023-07-09T18:35:25;3.50;;;3.20;;
40793;SDS011;26502;51.886;15.604;2023-07-09T18:40:33;4.20;;;3.80;;
40793;SDS011;26502;51.886;15.604;2023-07-09T18:45:41;5.50;;;3.70;;
40793;SDS011;26502;51.886;15.604;2023-07-09T18:50:47;5.10;;;3.30;;
40793;SDS011;26502;51.886;15.604;2023-07-09T18:55:58;6.60;;;3.70;;
40793;SDS011;26502;51.886;15.604;2023-07-09T19:01:11;4.20;;;3.30;;
40793;SDS011;26502;51.886;15.604;2023-07-09T19:06:23;3.90;;;3.40;;
40793;SDS011;26502;51.886;15.604;2023-07-09T19:11:29;4.50;;;3.90;;
40793;SDS011;26502;51.886;15.604;2023-07-09T19:16:35;9.20;;;3.90;;
40793;SDS011;26502;51.886;15.604;2023-07-09T19:21:42;4.90;;;3.80;;
40793;SDS011;26502;51.886;15.604;2023-07-09T19:26:50;7.00;;;4.40;;
40793;SDS011;26502;51.886;15.604;2023-07-09T19:31:56;4.70;;;4.10;;
40793;SDS011;26502;51.886;15.604;2023-07-09T19:37:12;12.80;;;4.00;;
40793;SDS011;26502;51.886;15.604;2023-07-09T19:42:23;5.10;;;3.60;;
40793;SDS011;26502;51.886;15.604;2023-07-09T19:47:31;4.30;;;3.90;;
40793;SDS011;26502;51.886;15.604;2023-07-09T19:52:38;5.40;;;3.60;;
40793;SDS011;26502;51.886;15.604;2023-07-09T19:57:44;4.90;;;4.40;;
40793;SDS011;26502;51.886;15.604;2023-07-09T20:02:50;4.80;;;3.60;;
40793;SDS011;26502;51.886;15.604;2023-07-09T20:07:58;5.20;;;3.80;;
40793;SDS011;26502;51.886;15.604;2023-07-09T20:13:15;6.00;;;3.50;;
40793;SDS011;26502;51.886;15.604;2023-07-09T20:18:25;4.10;;;3.80;;
40793;SDS011;26502;51.886;15.604;2023-07-09T20:23:31;4.50;;;3.70;;
40793;SDS011;26502;51.886;15.604;2023-07-09T20:28:37;10.80;;;4.30;;
40793;SDS011;26502;51.886;15.604;2023-07-09T20:33:43;4.40;;;3.70;;
40793;SDS011;26502;51.886;15.604;2023-07-09T20:38:49;8.10;;;3.40;;
40793;SDS011;26502;51.886;15.604;2023-07-09T20:43:55;5.00;;;4.00;;
40793;SDS011;26502;51.886;15.604;2023-07-09T20:49:01;3.40;;;3.10;;
40793;SDS011;26502;51.886;15.604;2023-07-09T20:54:08;3.60;;;3.20;;
40793;SDS011;26502;51.886;15.604;2023-07-09T20:59:16;4.10;;;3.70;;
40793;SDS011;26502;51.886;15.604;2023-07-09T21:04:22;4.10;;;3.60;;
40793;SDS011;26502;51.886;15.604;2023-07-09T21:09:30;5.50;;;3.60;;
40793;SDS011;26502;51.886;15.604;2023-07-09T21:14:36;4.20;;;3.80;;
40793;SDS011;26502;51.886;15.604;2023-07-09T21:19:42;7.40;;;4.20;;
40793;SDS011;26502;51.886;15.604;2023-07-09T21:24:49;5.50;;;3.80;;
40793;SDS011;26502;51.886;15.604;2023-07-09T21:29:59;7.50;;;4.20;;
40793;SDS011;26502;51.886;15.604;2023-07-09T21:35:07;4.90;;;3.90;;
40793;SDS011;26502;51.886;15.604;2023-07-09T21:40:26;5.20;;;4.10;;
40793;SDS011;26502;51.886;15.604;2023-07-09T21:45:34;4.80;;;4.10;;
40793;SDS011;26502;51.886;15.604;2023-07-09T21:50:41;4.90;;;4.00;;
40793;SDS011;26502;51.886;15.604;2023-07-09T21:55:47;7.50;;;4.30;;
40793;SDS011;26502;51.886;15.604;2023-07-09T22:00:53;8.10;;;4.30;;
40793;SDS011;26502;51.886;15.604;2023-07-09T22:06:00;5.30;;;3.70;;
40793;SDS011;26502;51.886;15.604;2023-07-09T22:11:08;4.50;;;3.60;;
40793;SDS011;26502;51.886;15.604;2023-07-09T22:21:28;5.20;;;3.80;;
40793;SDS011;26502;51.886;15.604;2023-07-09T22:26:35;5.90;;;4.10;;
40793;SDS011;26502;51.886;15.604;2023-07-09T22:31:41;9.60;;;3.90;;
40793;SDS011;26502;51.886;15.604;2023-07-09T22:36:48;4.40;;;3.80;;
40793;SDS011;26502;51.886;15.604;2023-07-09T22:41:54;7.90;;;3.90;;
40793;SDS011;26502;51.886;15.604;2023-07-09T22:47:00;7.30;;;3.90;;
40793;SDS011;26502;51.886;15.604;2023-07-09T22:52:08;7.20;;;3.90;;
40793;SDS011;26502;51.886;15.604;2023-07-09T22:57:14;5.70;;;4.40;;
40793;SDS011;26502;51.886;15.604;2023-07-09T23:02:20;8.90;;;3.90;;
40793;SDS011;26502;51.886;15.604;2023-07-09T23:07:30;5.10;;;4.10;;
40793;SDS011;26502;51.886;15.604;2023-07-09T23:12:37;5.10;;;4.10;;
40793;SDS011;26502;51.886;15.604;2023-07-09T23:17:43;7.20;;;4.30;;
40793;SDS011;26502;51.886;15.604;2023-07-09T23:22:49;4.30;;;3.80;;
40793;SDS011;26502;51.886;15.604;2023-07-09T23:27:56;6.40;;;4.10;;
40793;SDS011;26502;51.886;15.604;2023-07-09T23:33:03;4.70;;;3.60;;
40793;SDS011;26502;51.886;15.604;2023-07-09T23:38:26;5.00;;;3.80;;
40793;SDS011;26502;51.886;15.604;2023-07-09T23:43:35;4.80;;;3.70;;
40793;SDS011;26502;51.886;15.604;2023-07-09T23:48:44;5.50;;;3.80;;
40793;SDS011;26502;51.886;15.604;2023-07-09T23:53:51;5.20;;;3.50;;
40793;SDS011;26502;51.886;15.604;2023-07-09T23:58:57;5.00;;;3.80;;
